sensor_id;sensor_type;location;lat;lon;timestamp;P1;durP1;ratioP1;P2;durP2;ratioP2
28309;SDS011;15571;50.974;13.936;2022-09-20T00:27:13;6.55;;;2.30;;
28309;SDS011;15571;50.974;13.936;2022-09-20T00:30:17;5.20;;;1.85;;
28309;SDS011;15571;50.974;13.936;2022-09-20T00:33:23;3.97;;;1.90;;
28309;SDS011;15571;50.974;13.936;2022-09-20T00:36:47;2.45;;;1.50;;
28309;SDS011;15571;50.974;13.936;2022-09-20T00:39:49;4.73;;;1.57;;
28309;SDS011;15571;50.974;13.936;2022-09-20T00:42:53;2.22;;;1.10;;
28309;SDS011;15571;50.974;13.936;2022-09-20T00:45:55;2.53;;;0.85;;
28309;SDS011;15571;50.974;13.936;2022-09-20T00:49:00;3.15;;;0.73;;
28309;SDS011;15571;50.974;13.936;2022-09-20T00:52:06;2.85;;;1.02;;
28309;SDS011;15571;50.974;13.936;2022-09-20T00:55:10;2.17;;;1.05;;
28309;SDS011;15571;50.974;13.936;2022-09-20T00:58:15;2.10;;;1.13;;
28309;SDS011;15571;50.974;13.936;2022-09-20T01:01:23;2.70;;;1.30;;
28309;SDS011;15571;50.974;13.936;2022-09-20T01:04:29;6.13;;;3.05;;
28309;SDS011;15571;50.974;13.936;2022-09-20T01:07:32;11.38;;;3.70;;
28309;SDS011;15571;50.974;13.936;2022-09-20T01:10:34;11.50;;;3.92;;
28309;SDS011;15571;50.974;13.936;2022-09-20T01:13:39;11.43;;;4.05;;
28309;SDS011;15571;50.974;13.936;2022-09-20T01:16:44;7.40;;;2.75;;
28309;SDS011;15571;50.974;13.936;2022-09-20T01:19:47;6.75;;;1.58;;
28309;SDS011;15571;50.974;13.936;2022-09-20T01:26:47;6.38;;;2.65;;
28309;SDS011;15571;50.974;13.936;2022-09-20T01:30:09;8.13;;;3.53;;
28309;SDS011;15571;50.974;13.936;2022-09-20T01:33:16;8.73;;;4.00;;
28309;SDS011;15571;50.974;13.936;2022-09-20T01:36:32;7.47;;;2.88;;
28309;SDS011;15571;50.974;13.936;2022-09-20T01:39:41;3.80;;;2.10;;
28309;SDS011;15571;50.974;13.936;2022-09-20T01:42:58;3.67;;;2.03;;
28309;SDS011;15571;50.974;13.936;2022-09-20T01:46:12;2.47;;;1.70;;
28309;SDS011;15571;50.974;13.936;2022-09-20T01:49:28;1.05;;;0.95;;
28309;SDS011;15571;50.974;13.936;2022-09-20T01:52:48;1.38;;;0.80;;
28309;SDS011;15571;50.974;13.936;2022-09-20T02:00:06;5.25;;;2.00;;
28309;SDS011;15571;50.974;13.936;2022-09-20T02:07:02;4.25;;;2.30;;
28309;SDS011;15571;50.974;13.936;2022-09-20T02:10:26;3.33;;;1.42;;
28309;SDS011;15571;50.974;13.936;2022-09-20T02:13:47;2.92;;;1.65;;
28309;SDS011;15571;50.974;13.936;2022-09-20T02:17:06;4.57;;;1.52;;
28309;SDS011;15571;50.974;13.936;2022-09-20T02:20:28;2.40;;;1.15;;
28309;SDS011;15571;50.974;13.936;2022-09-20T02:23:39;4.32;;;1.52;;
28309;SDS011;15571;50.974;13.936;2022-09-20T02:26:56;1.98;;;1.65;;
28309;SDS011;15571;50.974;13.936;2022-09-20T02:30:11;5.97;;;1.80;;
28309;SDS011;15571;50.974;13.936;2022-09-20T02:33:31;3.13;;;1.73;;
28309;SDS011;15571;50.974;13.936;2022-09-20T02:36:49;2.05;;;1.40;;
28309;SDS011;15571;50.974;13.936;2022-09-20T02:40:06;2.10;;;1.80;;
28309;SDS011;15571;50.974;13.936;2022-09-20T02:43:23;4.63;;;1.85;;
28309;SDS011;15571;50.974;13.936;2022-09-20T02:46:34;2.97;;;1.80;;
28309;SDS011;15571;50.974;13.936;2022-09-20T02:49:46;3.72;;;2.67;;
28309;SDS011;15571;50.974;13.936;2022-09-20T02:53:16;2.40;;;1.85;;
28309;SDS011;15571;50.974;13.936;2022-09-20T02:56:30;3.30;;;1.75;;
28309;SDS011;15571;50.974;13.936;2022-09-20T02:59:41;2.63;;;1.55;;
28309;SDS011;15571;50.974;13.936;2022-09-20T03:02:49;4.00;;;1.50;;
28309;SDS011;15571;50.974;13.936;2022-09-20T03:06:06;2.88;;;1.67;;
28309;SDS011;15571;50.974;13.936;2022-09-20T03:09:17;3.10;;;1.58;;
28309;SDS011;15571;50.974;13.936;2022-09-20T03:12:29;4.57;;;1.73;;
28309;SDS011;15571;50.974;13.936;2022-09-20T03:15:47;3.15;;;1.67;;
28309;SDS011;15571;50.974;13.936;2022-09-20T03:19:02;2.47;;;1.55;;
28309;SDS011;15571;50.974;13.936;2022-09-20T03:25:36;3.53;;;1.70;;
28309;SDS011;15571;50.974;13.936;2022-09-20T03:28:54;4.90;;;1.88;;
28309;SDS011;15571;50.974;13.936;2022-09-20T03:32:06;2.20;;;1.70;;
28309;SDS011;15571;50.974;13.936;2022-09-20T03:35:24;4.88;;;1.75;;
28309;SDS011;15571;50.974;13.936;2022-09-20T03:38:41;5.00;;;2.13;;
28309;SDS011;15571;50.974;13.936;2022-09-20T03:42:12;5.05;;;2.63;;
28309;SDS011;15571;50.974;13.936;2022-09-20T03:45:28;4.05;;;2.47;;
28309;SDS011;15571;50.974;13.936;2022-09-20T03:48:53;2.50;;;2.00;;
28309;SDS011;15571;50.974;13.936;2022-09-20T03:52:04;3.10;;;1.88;;
28309;SDS011;15571;50.974;13.936;2022-09-20T03:55:25;3.83;;;2.60;;
28309;SDS011;15571;50.974;13.936;2022-09-20T03:58:46;3.45;;;2.17;;
28309;SDS011;15571;50.974;13.936;2022-09-20T04:02:20;1.95;;;1.75;;
28309;SDS011;15571;50.974;13.936;2022-09-20T04:05:40;2.60;;;1.73;;
28309;SDS011;15571;50.974;13.936;2022-09-20T04:09:00;5.72;;;1.90;;
28309;SDS011;15571;50.974;13.936;2022-09-20T04:12:21;4.00;;;1.90;;
28309;SDS011;15571;50.974;13.936;2022-09-20T04:15:36;3.22;;;2.35;;
28309;SDS011;15571;50.974;13.936;2022-09-20T04:18:48;3.92;;;1.92;;
28309;SDS011;15571;50.974;13.936;2022-09-20T04:21:57;3.00;;;2.30;;
28309;SDS011;15571;50.974;13.936;2022-09-20T04:25:02;5.15;;;2.13;;
28309;SDS011;15571;50.974;13.936;2022-09-20T04:28:14;5.32;;;2.95;;
28309;SDS011;15571;50.974;13.936;2022-09-20T04:31:31;4.95;;;2.63;;
28309;SDS011;15571;50.974;13.936;2022-09-20T04:34:41;12.75;;;3.33;;
28309;SDS011;15571;50.974;13.936;2022-09-20T04:38:06;8.20;;;2.50;;
28309;SDS011;15571;50.974;13.936;2022-09-20T04:41:17;4.43;;;2.35;;
28309;SDS011;15571;50.974;13.936;2022-09-20T04:48:37;4.90;;;2.33;;
28309;SDS011;15571;50.974;13.936;2022-09-20T04:52:21;5.88;;;1.90;;
28309;SDS011;15571;50.974;13.936;2022-09-20T04:55:52;3.22;;;2.30;;
28309;SDS011;15571;50.974;13.936;2022-09-20T04:59:02;4.85;;;2.50;;
28309;SDS011;15571;50.974;13.936;2022-09-20T05:02:26;2.75;;;2.40;;
28309;SDS011;15571;50.974;13.936;2022-09-20T05:09:30;5.10;;;2.95;;
28309;SDS011;15571;50.974;13.936;2022-09-20T05:12:58;5.80;;;2.63;;
28309;SDS011;15571;50.974;13.936;2022-09-20T05:16:16;4.68;;;3.20;;
28309;SDS011;15571;50.974;13.936;2022-09-20T05:19:30;5.72;;;2.88;;
28309;SDS011;15571;50.974;13.936;2022-09-20T05:23:00;9.45;;;3.80;;
28309;SDS011;15571;50.974;13.936;2022-09-20T05:26:27;5.55;;;3.70;;
28309;SDS011;15571;50.974;13.936;2022-09-20T05:29:44;5.90;;;3.92;;
28309;SDS011;15571;50.974;13.936;2022-09-20T05:32:59;7.05;;;3.88;;
28309;SDS011;15571;50.974;13.936;2022-09-20T05:36:16;4.20;;;3.78;;
28309;SDS011;15571;50.974;13.936;2022-09-20T05:39:37;7.00;;;3.85;;
28309;SDS011;15571;50.974;13.936;2022-09-20T05:42:46;8.52;;;4.65;;
28309;SDS011;15571;50.974;13.936;2022-09-20T05:46:00;8.18;;;4.97;;
28309;SDS011;15571;50.974;13.936;2022-09-20T05:49:11;6.80;;;4.70;;
28309;SDS011;15571;50.974;13.936;2022-09-20T05:52:27;7.95;;;4.80;;
28309;SDS011;15571;50.974;13.936;2022-09-20T05:55:58;7.18;;;4.22;;
28309;SDS011;15571;50.974;13.936;2022-09-20T05:59:21;6.47;;;4.32;;
28309;SDS011;15571;50.974;13.936;2022-09-20T06:02:37;8.10;;;4.43;;
28309;SDS011;15571;50.974;13.936;2022-09-20T06:05:51;7.22;;;4.40;;
28309;SDS011;15571;50.974;13.936;2022-09-20T06:09:10;10.23;;;4.47;;
28309;SDS011;15571;50.974;13.936;2022-09-20T06:12:38;5.75;;;3.95;;
28309;SDS011;15571;50.974;13.936;2022-09-20T06:15:52;10.27;;;4.82;;
28309;SDS011;15571;50.974;13.936;2022-09-20T06:19:00;6.78;;;4.03;;
28309;SDS011;15571;50.974;13.936;2022-09-20T06:22:20;7.70;;;4.40;;
28309;SDS011;15571;50.974;13.936;2022-09-20T06:25:29;11.07;;;5.32;;
28309;SDS011;15571;50.974;13.936;2022-09-20T06:28:41;5.35;;;4.22;;
28309;SDS011;15571;50.974;13.936;2022-09-20T06:32:00;5.82;;;4.25;;
28309;SDS011;15571;50.974;13.936;2022-09-20T06:35:03;7.72;;;4.50;;
28309;SDS011;15571;50.974;13.936;2022-09-20T06:38:15;6.70;;;4.20;;
28309;SDS011;15571;50.974;13.936;2022-09-20T06:41:47;10.98;;;4.05;;
28309;SDS011;15571;50.974;13.936;2022-09-20T06:44:55;6.55;;;4.55;;
28309;SDS011;15571;50.974;13.936;2022-09-20T06:48:01;8.52;;;4.40;;
28309;SDS011;15571;50.974;13.936;2022-09-20T06:51:05;8.82;;;4.95;;
28309;SDS011;15571;50.974;13.936;2022-09-20T06:54:10;6.15;;;4.20;;
28309;SDS011;15571;50.974;13.936;2022-09-20T06:57:18;6.68;;;4.78;;
28309;SDS011;15571;50.974;13.936;2022-09-20T07:00:26;7.53;;;5.00;;
28309;SDS011;15571;50.974;13.936;2022-09-20T07:03:31;8.13;;;4.50;;
28309;SDS011;15571;50.974;13.936;2022-09-20T07:06:34;8.77;;;5.40;;
28309;SDS011;15571;50.974;13.936;2022-09-20T07:09:37;9.82;;;4.88;;
28309;SDS011;15571;50.974;13.936;2022-09-20T07:12:44;6.22;;;4.78;;
28309;SDS011;15571;50.974;13.936;2022-09-20T07:15:48;7.55;;;4.63;;
28309;SDS011;15571;50.974;13.936;2022-09-20T07:18:51;9.25;;;4.28;;
28309;SDS011;15571;50.974;13.936;2022-09-20T07:21:54;8.77;;;4.63;;
28309;SDS011;15571;50.974;13.936;2022-09-20T07:24:57;9.15;;;4.85;;
28309;SDS011;15571;50.974;13.936;2022-09-20T07:28:02;9.85;;;4.43;;
28309;SDS011;15571;50.974;13.936;2022-09-20T07:31:06;9.07;;;4.75;;
28309;SDS011;15571;50.974;13.936;2022-09-20T07:34:09;6.97;;;4.15;;
28309;SDS011;15571;50.974;13.936;2022-09-20T07:37:12;9.95;;;5.78;;
28309;SDS011;15571;50.974;13.936;2022-09-20T07:40:17;9.38;;;4.97;;
28309;SDS011;15571;50.974;13.936;2022-09-20T07:43:21;11.25;;;6.25;;
28309;SDS011;15571;50.974;13.936;2022-09-20T07:46:25;7.70;;;5.10;;
28309;SDS011;15571;50.974;13.936;2022-09-20T07:49:28;12.70;;;6.13;;
28309;SDS011;15571;50.974;13.936;2022-09-20T07:52:33;8.82;;;5.97;;
28309;SDS011;15571;50.974;13.936;2022-09-20T07:55:38;10.45;;;6.63;;
28309;SDS011;15571;50.974;13.936;2022-09-20T07:58:41;11.57;;;6.50;;
28309;SDS011;15571;50.974;13.936;2022-09-20T08:01:47;10.73;;;6.30;;
28309;SDS011;15571;50.974;13.936;2022-09-20T08:08:59;13.23;;;6.60;;
28309;SDS011;15571;50.974;13.936;2022-09-20T08:12:02;13.07;;;6.40;;
28309;SDS011;15571;50.974;13.936;2022-09-20T08:15:07;9.52;;;6.25;;
28309;SDS011;15571;50.974;13.936;2022-09-20T08:18:12;15.60;;;7.15;;
28309;SDS011;15571;50.974;13.936;2022-09-20T08:21:17;12.68;;;6.75;;
28309;SDS011;15571;50.974;13.936;2022-09-20T08:24:20;11.90;;;7.72;;
28309;SDS011;15571;50.974;13.936;2022-09-20T08:27:25;14.02;;;7.63;;
28309;SDS011;15571;50.974;13.936;2022-09-20T08:30:28;11.63;;;7.57;;
28309;SDS011;15571;50.974;13.936;2022-09-20T08:33:32;12.90;;;7.82;;
28309;SDS011;15571;50.974;13.936;2022-09-20T08:36:38;15.85;;;7.85;;
28309;SDS011;15571;50.974;13.936;2022-09-20T08:39:46;17.42;;;8.75;;
28309;SDS011;15571;50.974;13.936;2022-09-20T08:42:49;24.13;;;9.13;;
28309;SDS011;15571;50.974;13.936;2022-09-20T08:45:56;17.73;;;8.88;;
28309;SDS011;15571;50.974;13.936;2022-09-20T08:49:03;17.60;;;9.18;;
28309;SDS011;15571;50.974;13.936;2022-09-20T08:52:13;18.10;;;9.68;;
28309;SDS011;15571;50.974;13.936;2022-09-20T08:55:19;19.27;;;10.00;;
28309;SDS011;15571;50.974;13.936;2022-09-20T08:58:27;21.08;;;10.35;;
28309;SDS011;15571;50.974;13.936;2022-09-20T09:01:30;21.48;;;10.32;;
28309;SDS011;15571;50.974;13.936;2022-09-20T09:04:35;16.33;;;9.38;;
28309;SDS011;15571;50.974;13.936;2022-09-20T09:07:44;15.35;;;9.50;;
28309;SDS011;15571;50.974;13.936;2022-09-20T09:10:53;17.75;;;9.77;;
28309;SDS011;15571;50.974;13.936;2022-09-20T09:14:00;14.40;;;9.48;;
28309;SDS011;15571;50.974;13.936;2022-09-20T09:17:27;16.67;;;8.77;;
28309;SDS011;15571;50.974;13.936;2022-09-20T09:20:34;9.85;;;7.00;;
28309;SDS011;15571;50.974;13.936;2022-09-20T09:23:44;16.20;;;8.38;;
28309;SDS011;15571;50.974;13.936;2022-09-20T09:27:04;12.80;;;7.75;;
28309;SDS011;15571;50.974;13.936;2022-09-20T09:33:21;14.02;;;6.25;;
28309;SDS011;15571;50.974;13.936;2022-09-20T09:36:30;12.52;;;6.93;;
28309;SDS011;15571;50.974;13.936;2022-09-20T09:39:33;14.18;;;6.75;;
28309;SDS011;15571;50.974;13.936;2022-09-20T09:42:46;11.15;;;5.95;;
28309;SDS011;15571;50.974;13.936;2022-09-20T09:45:50;11.23;;;6.47;;
28309;SDS011;15571;50.974;13.936;2022-09-20T09:49:05;15.13;;;5.90;;
28309;SDS011;15571;50.974;13.936;2022-09-20T09:52:13;6.63;;;4.90;;
28309;SDS011;15571;50.974;13.936;2022-09-20T09:55:24;7.65;;;4.97;;
28309;SDS011;15571;50.974;13.936;2022-09-20T09:58:41;10.13;;;4.85;;
28309;SDS011;15571;50.974;13.936;2022-09-20T10:01:56;7.88;;;4.95;;
28309;SDS011;15571;50.974;13.936;2022-09-20T10:05:09;8.30;;;5.35;;
28309;SDS011;15571;50.974;13.936;2022-09-20T10:08:28;8.73;;;4.70;;
28309;SDS011;15571;50.974;13.936;2022-09-20T10:11:43;7.32;;;5.00;;
28309;SDS011;15571;50.974;13.936;2022-09-20T10:15:01;9.52;;;4.25;;
28309;SDS011;15571;50.974;13.936;2022-09-20T10:18:19;7.78;;;4.30;;
28309;SDS011;15571;50.974;13.936;2022-09-20T10:21:38;8.93;;;4.18;;
28309;SDS011;15571;50.974;13.936;2022-09-20T10:24:57;5.45;;;3.53;;
28309;SDS011;15571;50.974;13.936;2022-09-20T10:28:15;5.18;;;3.38;;
28309;SDS011;15571;50.974;13.936;2022-09-20T10:31:32;6.63;;;3.42;;
28309;SDS011;15571;50.974;13.936;2022-09-20T10:34:55;10.52;;;3.28;;
28309;SDS011;15571;50.974;13.936;2022-09-20T10:38:14;5.63;;;3.13;;
28309;SDS011;15571;50.974;13.936;2022-09-20T10:45:10;7.30;;;3.45;;
28309;SDS011;15571;50.974;13.936;2022-09-20T10:51:32;3.55;;;2.42;;
28309;SDS011;15571;50.974;13.936;2022-09-20T10:54:47;3.95;;;3.03;;
28309;SDS011;15571;50.974;13.936;2022-09-20T11:01:51;5.05;;;3.33;;
28309;SDS011;15571;50.974;13.936;2022-09-20T11:05:19;4.73;;;2.93;;
28309;SDS011;15571;50.974;13.936;2022-09-20T11:08:32;6.53;;;3.40;;
28309;SDS011;15571;50.974;13.936;2022-09-20T11:11:41;3.70;;;2.85;;
28309;SDS011;15571;50.974;13.936;2022-09-20T11:14:47;5.05;;;3.38;;
28309;SDS011;15571;50.974;13.936;2022-09-20T11:17:59;4.57;;;3.25;;
28309;SDS011;15571;50.974;13.936;2022-09-20T11:21:10;7.53;;;3.08;;
28309;SDS011;15571;50.974;13.936;2022-09-20T11:24:23;4.28;;;2.97;;
28309;SDS011;15571;50.974;13.936;2022-09-20T11:27:31;4.75;;;3.25;;
28309;SDS011;15571;50.974;13.936;2022-09-20T11:30:40;4.18;;;3.03;;
28309;SDS011;15571;50.974;13.936;2022-09-20T11:33:55;3.55;;;2.15;;
28309;SDS011;15571;50.974;13.936;2022-09-20T11:37:05;4.30;;;2.45;;
28309;SDS011;15571;50.974;13.936;2022-09-20T11:40:11;3.42;;;2.03;;
28309;SDS011;15571;50.974;13.936;2022-09-20T11:43:20;2.42;;;1.88;;
28309;SDS011;15571;50.974;13.936;2022-09-20T11:46:41;3.95;;;1.75;;
28309;SDS011;15571;50.974;13.936;2022-09-20T11:49:57;2.10;;;1.70;;
28309;SDS011;15571;50.974;13.936;2022-09-20T11:53:30;3.50;;;2.33;;
28309;SDS011;15571;50.974;13.936;2022-09-20T11:56:49;3.75;;;1.83;;
28309;SDS011;15571;50.974;13.936;2022-09-20T11:59:56;5.57;;;1.98;;
28309;SDS011;15571;50.974;13.936;2022-09-20T12:03:24;4.15;;;1.83;;
28309;SDS011;15571;50.974;13.936;2022-09-20T12:06:39;4.80;;;1.70;;
28309;SDS011;15571;50.974;13.936;2022-09-20T12:09:44;3.75;;;2.22;;
28309;SDS011;15571;50.974;13.936;2022-09-20T12:12:56;3.72;;;1.55;;
28309;SDS011;15571;50.974;13.936;2022-09-20T12:16:05;2.45;;;2.03;;
28309;SDS011;15571;50.974;13.936;2022-09-20T12:19:36;2.10;;;1.55;;
28309;SDS011;15571;50.974;13.936;2022-09-20T12:22:41;4.50;;;1.52;;
28309;SDS011;15571;50.974;13.936;2022-09-20T12:25:57;3.17;;;1.88;;
28309;SDS011;15571;50.974;13.936;2022-09-20T12:29:07;2.47;;;1.83;;
28309;SDS011;15571;50.974;13.936;2022-09-20T12:32:56;7.55;;;1.80;;
28309;SDS011;15571;50.974;13.936;2022-09-20T12:36:16;2.38;;;1.10;;
28309;SDS011;15571;50.974;13.936;2022-09-20T12:39:21;3.72;;;1.10;;
28309;SDS011;15571;50.974;13.936;2022-09-20T12:42:27;6.03;;;1.63;;
28309;SDS011;15571;50.974;13.936;2022-09-20T12:45:31;1.98;;;1.20;;
28309;SDS011;15571;50.974;13.936;2022-09-20T12:48:34;4.47;;;1.63;;
28309;SDS011;15571;50.974;13.936;2022-09-20T12:51:43;2.10;;;1.65;;
28309;SDS011;15571;50.974;13.936;2022-09-20T12:55:12;2.55;;;1.80;;
28309;SDS011;15571;50.974;13.936;2022-09-20T12:58:33;3.63;;;1.80;;
28309;SDS011;15571;50.974;13.936;2022-09-20T13:01:44;2.88;;;1.67;;
28309;SDS011;15571;50.974;13.936;2022-09-20T13:04:51;1.90;;;1.60;;
28309;SDS011;15571;50.974;13.936;2022-09-20T13:07:56;5.15;;;2.00;;
28309;SDS011;15571;50.974;13.936;2022-09-20T13:11:09;4.25;;;1.45;;
28309;SDS011;15571;50.974;13.936;2022-09-20T13:14:14;4.90;;;1.80;;
28309;SDS011;15571;50.974;13.936;2022-09-20T13:17:25;4.73;;;1.93;;
28309;SDS011;15571;50.974;13.936;2022-09-20T13:20:31;4.32;;;2.25;;
28309;SDS011;15571;50.974;13.936;2022-09-20T13:23:44;5.60;;;1.67;;
28309;SDS011;15571;50.974;13.936;2022-09-20T13:26:53;4.50;;;2.00;;
28309;SDS011;15571;50.974;13.936;2022-09-20T13:30:08;3.75;;;2.17;;
28309;SDS011;15571;50.974;13.936;2022-09-20T13:33:22;6.03;;;2.13;;
28309;SDS011;15571;50.974;13.936;2022-09-20T13:36:26;4.38;;;1.63;;
28309;SDS011;15571;50.974;13.936;2022-09-20T13:39:32;2.28;;;1.73;;
28309;SDS011;15571;50.974;13.936;2022-09-20T13:42:38;3.80;;;1.92;;
28309;SDS011;15571;50.974;13.936;2022-09-20T13:45:47;3.22;;;1.88;;
28309;SDS011;15571;50.974;13.936;2022-09-20T13:49:08;4.25;;;1.50;;
28309;SDS011;15571;50.974;13.936;2022-09-20T13:52:21;2.42;;;1.52;;
28309;SDS011;15571;50.974;13.936;2022-09-20T13:55:26;4.97;;;1.52;;
28309;SDS011;15571;50.974;13.936;2022-09-20T13:58:34;6.00;;;1.52;;
28309;SDS011;15571;50.974;13.936;2022-09-20T14:01:38;3.42;;;1.35;;
28309;SDS011;15571;50.974;13.936;2022-09-20T14:04:50;2.08;;;1.17;;
28309;SDS011;15571;50.974;13.936;2022-09-20T14:07:58;1.92;;;1.30;;
28309;SDS011;15571;50.974;13.936;2022-09-20T14:11:04;2.50;;;1.30;;
28309;SDS011;15571;50.974;13.936;2022-09-20T14:14:09;1.90;;;1.20;;
28309;SDS011;15571;50.974;13.936;2022-09-20T14:17:16;1.70;;;1.10;;
28309;SDS011;15571;50.974;13.936;2022-09-20T17:03:46;8.52;;;5.50;;
28309;SDS011;15571;50.974;13.936;2022-09-20T17:06:49;5.95;;;4.38;;
28309;SDS011;15571;50.974;13.936;2022-09-20T17:09:52;6.45;;;3.47;;
28309;SDS011;15571;50.974;13.936;2022-09-20T17:13:01;5.45;;;4.65;;
28309;SDS011;15571;50.974;13.936;2022-09-20T17:16:07;6.38;;;3.28;;
28309;SDS011;15571;50.974;13.936;2022-09-20T17:19:13;3.58;;;2.80;;
28309;SDS011;15571;50.974;13.936;2022-09-20T17:22:17;4.43;;;2.70;;
28309;SDS011;15571;50.974;13.936;2022-09-20T17:25:20;5.35;;;2.30;;
28309;SDS011;15571;50.974;13.936;2022-09-20T17:28:32;4.00;;;2.40;;
28309;SDS011;15571;50.974;13.936;2022-09-20T17:31:36;2.60;;;2.10;;
28309;SDS011;15571;50.974;13.936;2022-09-20T17:34:46;8.13;;;4.30;;
28309;SDS011;15571;50.974;13.936;2022-09-20T17:37:51;7.72;;;4.30;;
28309;SDS011;15571;50.974;13.936;2022-09-20T17:40:58;8.07;;;5.55;;
28309;SDS011;15571;50.974;13.936;2022-09-20T17:44:04;8.18;;;4.85;;
28309;SDS011;15571;50.974;13.936;2022-09-20T17:47:10;5.05;;;3.55;;
28309;SDS011;15571;50.974;13.936;2022-09-20T17:50:14;5.03;;;3.58;;
28309;SDS011;15571;50.974;13.936;2022-09-20T17:53:17;2.72;;;2.38;;
28309;SDS011;15571;50.974;13.936;2022-09-20T17:56:19;3.83;;;2.10;;
28309;SDS011;15571;50.974;13.936;2022-09-20T17:59:24;4.50;;;2.30;;
28309;SDS011;15571;50.974;13.936;2022-09-20T18:02:26;2.78;;;2.10;;
28309;SDS011;15571;50.974;13.936;2022-09-20T18:05:30;3.10;;;2.40;;
28309;SDS011;15571;50.974;13.936;2022-09-20T18:08:36;2.78;;;2.10;;
28309;SDS011;15571;50.974;13.936;2022-09-20T18:11:39;3.67;;;2.38;;
28309;SDS011;15571;50.974;13.936;2022-09-20T18:14:43;6.93;;;5.43;;
28309;SDS011;15571;50.974;13.936;2022-09-20T18:17:49;5.28;;;3.83;;
28309;SDS011;15571;50.974;13.936;2022-09-20T18:20:53;3.30;;;2.83;;
28309;SDS011;15571;50.974;13.936;2022-09-20T18:23:59;5.15;;;3.53;;
28309;SDS011;15571;50.974;13.936;2022-09-20T18:27:02;9.38;;;5.55;;
28309;SDS011;15571;50.974;13.936;2022-09-20T18:30:05;8.10;;;4.85;;
28309;SDS011;15571;50.974;13.936;2022-09-20T18:33:08;11.45;;;6.10;;
28309;SDS011;15571;50.974;13.936;2022-09-20T18:36:12;10.98;;;7.38;;
28309;SDS011;15571;50.974;13.936;2022-09-20T18:39:21;10.23;;;6.07;;
28309;SDS011;15571;50.974;13.936;2022-09-20T18:42:27;9.15;;;6.13;;
28309;SDS011;15571;50.974;13.936;2022-09-20T18:45:33;9.40;;;4.75;;
28309;SDS011;15571;50.974;13.936;2022-09-20T18:48:36;5.85;;;4.35;;
28309;SDS011;15571;50.974;13.936;2022-09-20T18:51:41;6.43;;;3.97;;
28309;SDS011;15571;50.974;13.936;2022-09-20T18:54:45;3.85;;;3.00;;
28309;SDS011;15571;50.974;13.936;2022-09-20T18:57:48;4.82;;;3.13;;
28309;SDS011;15571;50.974;13.936;2022-09-20T19:00:54;4.88;;;3.67;;
28309;SDS011;15571;50.974;13.936;2022-09-20T19:04:20;5.35;;;3.67;;
28309;SDS011;15571;50.974;13.936;2022-09-20T19:07:46;7.03;;;4.28;;
28309;SDS011;15571;50.974;13.936;2022-09-20T19:10:57;4.65;;;3.80;;
28309;SDS011;15571;50.974;13.936;2022-09-20T19:14:04;5.35;;;3.90;;
28309;SDS011;15571;50.974;13.936;2022-09-20T19:17:13;6.88;;;4.50;;
28309;SDS011;15571;50.974;13.936;2022-09-20T19:20:24;6.82;;;4.32;;
28309;SDS011;15571;50.974;13.936;2022-09-20T19:23:46;6.13;;;4.65;;
28309;SDS011;15571;50.974;13.936;2022-09-20T19:27:03;8.25;;;4.68;;
28309;SDS011;15571;50.974;13.936;2022-09-20T19:30:11;6.07;;;5.03;;
28309;SDS011;15571;50.974;13.936;2022-09-20T19:33:16;6.95;;;5.28;;
28309;SDS011;15571;50.974;13.936;2022-09-20T19:36:29;7.13;;;5.63;;
28309;SDS011;15571;50.974;13.936;2022-09-20T19:39:44;6.35;;;5.25;;
28309;SDS011;15571;50.974;13.936;2022-09-20T19:43:03;5.88;;;4.78;;
28309;SDS011;15571;50.974;13.936;2022-09-20T19:49:49;6.95;;;4.60;;
28309;SDS011;15571;50.974;13.936;2022-09-20T19:53:02;6.18;;;4.38;;
28309;SDS011;15571;50.974;13.936;2022-09-20T19:56:20;7.80;;;5.03;;
28309;SDS011;15571;50.974;13.936;2022-09-20T19:59:26;7.18;;;4.70;;
28309;SDS011;15571;50.974;13.936;2022-09-20T20:02:29;6.00;;;3.95;;
28309;SDS011;15571;50.974;13.936;2022-09-20T20:05:34;5.13;;;4.30;;
28309;SDS011;15571;50.974;13.936;2022-09-20T20:08:38;5.53;;;3.88;;
28309;SDS011;15571;50.974;13.936;2022-09-20T20:11:57;5.78;;;3.78;;
28309;SDS011;15571;50.974;13.936;2022-09-20T20:15:12;7.68;;;4.22;;
28309;SDS011;15571;50.974;13.936;2022-09-20T20:18:36;7.68;;;4.70;;
28309;SDS011;15571;50.974;13.936;2022-09-20T20:21:47;5.57;;;3.75;;
28309;SDS011;15571;50.974;13.936;2022-09-20T20:24:56;5.95;;;4.15;;
28309;SDS011;15571;50.974;13.936;2022-09-20T20:28:02;4.75;;;3.70;;
28309;SDS011;15571;50.974;13.936;2022-09-20T20:31:05;4.43;;;3.40;;
28309;SDS011;15571;50.974;13.936;2022-09-20T20:34:11;3.63;;;3.20;;
28309;SDS011;15571;50.974;13.936;2022-09-20T20:37:15;3.97;;;3.28;;
28309;SDS011;15571;50.974;13.936;2022-09-20T20:40:18;4.10;;;3.17;;
28309;SDS011;15571;50.974;13.936;2022-09-20T20:51:58;6.72;;;3.58;;
28309;SDS011;15571;50.974;13.936;2022-09-20T20:55:21;5.22;;;3.33;;
28309;SDS011;15571;50.974;13.936;2022-09-20T23:51:12;4.22;;;2.65;;
28309;SDS011;15571;50.974;13.936;2022-09-20T23:54:17;4.75;;;2.65;;
28309;SDS011;15571;50.974;13.936;2022-09-20T23:57:23;3.63;;;2.65;;
